createdAt,value
2018-01-13T00:00:28.635Z,14.20
2018-01-13T00:02:56.951Z,13.27
2018-01-13T00:05:25.267Z,12.53
2018-01-13T00:07:53.539Z,12.20
2018-01-13T00:10:21.844Z,12.05
2018-01-13T00:12:50.127Z,13.07
2018-01-13T00:15:18.479Z,12.27
2018-01-13T00:17:46.771Z,11.70
2018-01-13T00:20:16.092Z,11.70
2018-01-13T00:22:44.494Z,12.60
2018-01-13T00:25:12.786Z,11.90
2018-01-13T00:27:41.110Z,11.60
2018-01-13T00:30:09.677Z,11.37
2018-01-13T00:32:37.991Z,11.87
2018-01-13T00:35:06.278Z,13.13
2018-01-13T00:37:34.563Z,12.55
2018-01-13T00:40:02.842Z,12.17
2018-01-13T00:42:31.143Z,11.50
2018-01-13T00:44:59.435Z,12.33
2018-01-13T00:47:27.699Z,12.47
2018-01-13T00:49:55.996Z,13.00
2018-01-13T00:52:24.280Z,13.03
2018-01-13T00:54:52.583Z,13.07
2018-01-13T00:57:20.864Z,12.20
2018-01-13T00:59:49.158Z,14.90
2018-01-13T01:02:17.434Z,13.93
2018-01-13T01:04:45.716Z,13.63
2018-01-13T01:07:13.995Z,13.23
2018-01-13T01:09:42.343Z,13.55
2018-01-13T01:12:10.640Z,12.50
2018-01-13T01:14:38.925Z,14.93
2018-01-13T01:17:07.270Z,13.63
2018-01-13T01:19:35.502Z,14.70
2018-01-13T01:22:04.844Z,14.42
2018-01-13T01:24:33.329Z,15.77
2018-01-13T01:27:01.609Z,13.50
2018-01-13T01:29:29.885Z,12.70
2018-01-13T01:31:58.189Z,12.80
2018-01-13T01:34:26.470Z,13.60
2018-01-13T01:36:55.095Z,13.40
2018-01-13T01:39:23.407Z,13.40
2018-01-13T01:41:51.674Z,13.40
2018-01-13T01:44:19.968Z,12.85
2018-01-13T01:46:48.245Z,13.13
2018-01-13T01:49:16.544Z,11.80
2018-01-13T01:51:44.879Z,13.10
2018-01-13T01:54:13.119Z,13.20
2018-01-13T01:56:41.411Z,12.98
2018-01-13T01:59:09.690Z,13.55
2018-01-13T02:01:37.982Z,13.13
2018-01-13T02:04:06.268Z,12.73
2018-01-13T02:06:34.534Z,12.80
2018-01-13T02:09:03.135Z,14.13
2018-01-13T02:11:31.427Z,13.83
2018-01-13T02:13:59.729Z,13.80
2018-01-13T02:16:27.979Z,13.40
2018-01-13T02:18:56.297Z,13.97
2018-01-13T02:21:24.562Z,13.77
2018-01-13T02:23:52.902Z,14.23
2018-01-13T02:26:21.194Z,13.15
2018-01-13T02:28:49.475Z,13.73
2018-01-13T02:31:17.777Z,13.33
2018-01-13T02:33:46.054Z,13.07
2018-01-13T02:36:14.378Z,13.53
2018-01-13T02:38:42.632Z,14.07
2018-01-13T02:41:10.930Z,14.82
2018-01-13T02:43:39.323Z,12.70
2018-01-13T02:46:07.603Z,13.13
2018-01-13T02:48:35.880Z,14.20
2018-01-13T02:51:04.403Z,13.70
2018-01-13T02:53:32.699Z,13.70
2018-01-13T02:56:01.209Z,14.20
2018-01-13T02:58:29.507Z,14.50
2018-01-13T03:00:57.829Z,15.40
2018-01-13T03:03:26.123Z,13.90
2018-01-13T03:05:54.408Z,14.05
2018-01-13T03:08:22.694Z,14.60
2018-01-13T03:10:50.965Z,13.30
2018-01-13T03:13:19.269Z,15.67
2018-01-13T03:15:47.597Z,14.40
2018-01-13T03:18:15.973Z,14.98
2018-01-13T03:20:44.306Z,14.97
2018-01-13T03:23:12.622Z,14.23
2018-01-13T03:25:40.914Z,13.70
2018-01-13T03:28:09.211Z,14.07
2018-01-13T03:30:37.515Z,13.50
2018-01-13T03:33:05.803Z,13.13
2018-01-13T03:35:34.114Z,15.05
2018-01-13T03:38:02.475Z,14.70
2018-01-13T03:40:30.762Z,15.10
2018-01-13T03:42:59.043Z,14.17
2018-01-13T03:45:28.148Z,14.70
2018-01-13T03:47:56.450Z,14.17
2018-01-13T03:50:24.724Z,13.95
2018-01-13T03:52:53.007Z,14.27
2018-01-13T03:55:21.326Z,13.57
2018-01-13T03:57:49.846Z,13.97
2018-01-13T04:00:18.137Z,14.18
2018-01-13T04:02:46.403Z,13.23
2018-01-13T04:05:14.692Z,13.80
2018-01-13T04:07:42.987Z,12.90
2018-01-13T04:10:11.295Z,14.75
2018-01-13T04:12:39.585Z,13.03
2018-01-13T04:15:07.887Z,14.50
2018-01-13T04:17:36.151Z,13.82
2018-01-13T04:20:04.870Z,15.00
2018-01-13T04:22:33.178Z,13.13
2018-01-13T04:25:01.492Z,15.10
2018-01-13T04:27:29.786Z,14.10
2018-01-13T04:29:58.048Z,13.53
2018-01-13T04:32:26.363Z,13.60
2018-01-13T04:34:54.656Z,12.60
2018-01-13T04:37:22.970Z,12.63
2018-01-13T04:39:51.239Z,12.47
2018-01-13T04:42:19.759Z,13.00
2018-01-13T04:44:48.014Z,13.63
2018-01-13T04:47:16.897Z,12.52
2018-01-13T04:49:45.217Z,14.10
2018-01-13T04:52:13.488Z,13.32
2018-01-13T04:54:41.809Z,12.53
2018-01-13T04:57:10.094Z,13.35
2018-01-13T04:59:38.387Z,13.00
2018-01-13T05:02:06.664Z,13.97
2018-01-13T05:04:34.946Z,12.98
2018-01-13T05:07:03.225Z,12.53
2018-01-13T05:09:31.550Z,13.38
2018-01-13T05:11:59.827Z,13.07
2018-01-13T05:14:28.102Z,14.32
2018-01-13T05:16:56.417Z,11.70
2018-01-13T05:19:24.682Z,12.17
2018-01-13T05:21:52.987Z,13.20
2018-01-13T05:24:22.085Z,12.65
2018-01-13T05:26:50.366Z,12.77
2018-01-13T05:29:18.625Z,12.53
2018-01-13T05:31:46.951Z,13.80
2018-01-13T05:34:15.235Z,10.43
2018-01-13T05:36:43.518Z,14.27
2018-01-13T05:39:11.822Z,12.53
2018-01-13T05:41:40.094Z,13.13
2018-01-13T05:44:08.398Z,12.52
2018-01-13T05:46:36.687Z,13.80
2018-01-13T05:49:04.990Z,13.97
2018-01-13T05:51:33.262Z,12.80
2018-01-13T05:54:01.554Z,14.07
2018-01-13T05:56:29.823Z,14.00
2018-01-13T05:58:58.119Z,12.60
2018-01-13T06:01:26.414Z,12.10
2018-01-13T06:03:54.740Z,13.20
2018-01-13T06:06:23.053Z,13.47
2018-01-13T06:08:51.748Z,13.05
2018-01-13T06:11:20.094Z,12.73
2018-01-13T06:13:48.341Z,12.50
2018-01-13T06:16:16.646Z,12.67
2018-01-13T06:18:44.927Z,14.10
2018-01-13T06:21:13.227Z,13.10
2018-01-13T06:23:41.526Z,13.20
2018-01-13T06:26:09.834Z,13.77
2018-01-13T06:28:38.123Z,13.30
2018-01-13T06:31:06.418Z,13.00
2018-01-13T06:33:34.713Z,12.63
2018-01-13T06:36:02.979Z,12.20
2018-01-13T06:38:31.265Z,11.97
2018-01-13T06:40:59.558Z,13.30
2018-01-13T06:43:27.885Z,13.93
2018-01-13T06:45:56.155Z,13.23
2018-01-13T06:48:24.480Z,14.10
2018-01-13T06:50:52.814Z,13.50
2018-01-13T06:53:21.101Z,15.45
2018-01-13T06:55:49.395Z,14.80
2018-01-13T06:58:17.875Z,14.10
2018-01-13T07:00:46.150Z,14.07
2018-01-13T07:03:14.408Z,13.75
2018-01-13T07:05:42.715Z,13.50
2018-01-13T07:08:10.979Z,15.40
2018-01-13T07:10:39.302Z,13.10
2018-01-13T07:13:07.615Z,13.47
2018-01-13T07:15:35.909Z,13.05
2018-01-13T07:18:04.970Z,13.30
2018-01-13T07:20:33.278Z,14.63
2018-01-13T07:23:01.576Z,14.33
2018-01-13T07:25:29.873Z,13.67
2018-01-13T07:27:58.158Z,12.30
2018-01-13T07:30:26.448Z,13.23
2018-01-13T07:32:54.768Z,14.13
2018-01-13T07:35:23.045Z,12.30
2018-01-13T07:37:51.385Z,10.23
2018-01-13T07:40:19.695Z,11.88
2018-01-13T07:42:47.991Z,11.37
2018-01-13T07:45:16.268Z,13.53
2018-01-13T07:47:44.703Z,12.50
2018-01-13T07:50:13.059Z,10.90
2018-01-13T07:52:41.359Z,12.80
2018-01-13T07:55:09.675Z,12.65
2018-01-13T07:57:37.945Z,12.50
2018-01-13T08:00:06.272Z,11.80
2018-01-13T08:02:34.739Z,11.20
2018-01-13T08:05:04.016Z,11.87
2018-01-13T08:07:32.288Z,11.52
2018-01-13T08:10:00.564Z,10.45
2018-01-13T08:12:28.862Z,10.90
2018-01-13T08:14:57.130Z,11.60
2018-01-13T08:17:26.146Z,12.20
2018-01-13T08:19:54.386Z,15.00
2018-01-13T08:22:22.678Z,14.17
2018-01-13T08:24:50.942Z,10.87
2018-01-13T08:27:19.254Z,11.40
2018-01-13T08:29:47.558Z,12.40
2018-01-13T08:32:15.874Z,11.40
2018-01-13T08:34:44.139Z,12.10
2018-01-13T08:37:12.422Z,10.80
2018-01-13T08:39:40.706Z,11.10
2018-01-13T08:42:09.585Z,11.05
2018-01-13T08:44:37.872Z,11.30
2018-01-13T08:47:06.451Z,11.87
2018-01-13T08:49:34.828Z,11.77
2018-01-13T08:52:03.071Z,12.20
2018-01-13T08:54:31.379Z,11.87
2018-01-13T08:56:59.658Z,12.15
2018-01-13T08:59:27.966Z,11.30
2018-01-13T09:01:57.755Z,12.40
2018-01-13T09:04:26.074Z,11.70
2018-01-13T09:06:54.372Z,11.00
2018-01-13T09:09:22.635Z,11.83
2018-01-13T09:11:50.906Z,12.20
2018-01-13T09:14:19.184Z,11.57
2018-01-13T09:16:47.482Z,11.70
2018-01-13T09:19:15.797Z,11.70
2018-01-13T09:21:44.124Z,11.27
2018-01-13T09:24:12.414Z,11.35
2018-01-13T09:26:40.696Z,10.20
2018-01-13T09:29:08.996Z,12.15
2018-01-13T09:31:37.271Z,12.00
2018-01-13T09:34:05.560Z,11.53
2018-01-13T09:36:33.836Z,11.10
2018-01-13T09:39:02.143Z,11.93
2018-01-13T09:41:30.408Z,10.83
2018-01-13T09:43:58.736Z,10.60
2018-01-13T09:46:27.014Z,11.07
2018-01-13T09:48:55.328Z,11.00
2018-01-13T09:51:24.487Z,11.18
2018-01-13T09:53:52.832Z,10.10
2018-01-13T09:56:21.110Z,11.67
2018-01-13T09:58:49.387Z,11.10
2018-01-13T10:01:17.717Z,11.50
2018-01-13T10:03:46.068Z,11.60
2018-01-13T10:06:14.369Z,11.50
2018-01-13T10:08:43.132Z,11.53
2018-01-13T10:11:11.433Z,11.18
2018-01-13T10:13:39.712Z,11.03
2018-01-13T10:16:08.061Z,10.67
2018-01-13T10:18:36.391Z,12.50
2018-01-13T10:21:04.679Z,11.77
2018-01-13T10:23:32.950Z,12.07
2018-01-13T10:26:01.271Z,11.37
2018-01-13T10:28:29.739Z,11.87
2018-01-13T10:30:58.050Z,12.70
2018-01-13T10:33:26.299Z,13.10
2018-01-13T10:35:54.683Z,12.13
2018-01-13T10:38:22.991Z,11.90
2018-01-13T10:40:51.296Z,11.47
2018-01-13T10:43:19.603Z,12.32
2018-01-13T10:45:48.003Z,11.10
2018-01-13T10:48:16.316Z,12.25
2018-01-13T10:50:44.640Z,12.13
2018-01-13T10:53:13.815Z,11.68
2018-01-13T10:55:42.847Z,12.43
2018-01-13T10:58:11.204Z,10.55
2018-01-13T11:00:39.523Z,12.90
2018-01-13T11:03:07.836Z,12.77
2018-01-13T11:05:36.141Z,12.20
2018-01-13T11:08:04.799Z,13.43
2018-01-13T11:10:33.100Z,12.87
2018-01-13T11:13:01.376Z,13.97
2018-01-13T11:15:29.695Z,11.73
2018-01-13T11:17:57.967Z,11.63
2018-01-13T11:20:26.311Z,12.53
2018-01-13T11:22:54.586Z,12.45
2018-01-13T11:25:22.898Z,12.60
2018-01-13T11:27:51.234Z,11.07
2018-01-13T11:30:19.532Z,13.60
2018-01-13T11:32:47.829Z,11.07
2018-01-13T11:35:16.804Z,12.33
2018-01-13T11:37:45.087Z,12.40
2018-01-13T11:40:13.388Z,13.27
2018-01-13T11:42:41.743Z,11.93
2018-01-13T11:45:10.064Z,12.23
2018-01-13T11:47:38.377Z,12.70
2018-01-13T11:50:06.659Z,11.83
2018-01-13T11:52:34.968Z,12.53
2018-01-13T11:55:03.248Z,11.88
2018-01-13T11:57:31.625Z,12.40
2018-01-13T11:59:59.924Z,13.10
2018-01-13T12:02:28.414Z,12.17
2018-01-13T12:04:56.710Z,11.93
2018-01-13T12:07:25.714Z,13.93
2018-01-13T12:09:54.240Z,12.90
2018-01-13T12:12:22.542Z,12.55
2018-01-13T12:14:50.862Z,12.77
2018-01-13T12:17:19.121Z,13.77
2018-01-13T12:19:47.410Z,11.80
2018-01-13T12:22:15.670Z,12.00
2018-01-13T12:24:43.971Z,13.30
2018-01-13T12:27:12.244Z,12.20
2018-01-13T12:29:40.596Z,12.30
2018-01-13T12:32:08.959Z,12.15
2018-01-13T12:34:37.257Z,12.40
2018-01-13T12:37:05.534Z,12.93
2018-01-13T12:39:33.836Z,13.57
2018-01-13T12:42:02.228Z,12.50
2018-01-13T12:44:30.474Z,12.50
2018-01-13T12:46:58.779Z,11.50
2018-01-13T12:49:27.095Z,11.85
2018-01-13T12:51:55.495Z,12.45
2018-01-13T12:54:23.735Z,12.20
2018-01-13T12:56:52.033Z,12.17
2018-01-13T12:59:20.323Z,12.60
2018-01-13T13:01:48.985Z,12.27
2018-01-13T13:04:17.272Z,13.97
2018-01-13T13:06:45.622Z,16.77
2018-01-13T13:09:13.945Z,12.90
2018-01-13T13:11:42.788Z,12.50
2018-01-13T13:14:11.067Z,12.10
2018-01-13T13:16:39.322Z,12.63
2018-01-13T13:19:07.646Z,11.97
2018-01-13T13:21:35.922Z,11.83
2018-01-13T13:24:04.708Z,11.52
2018-01-13T13:26:33.000Z,12.30
2018-01-13T13:29:01.307Z,12.07
2018-01-13T13:31:29.564Z,12.43
2018-01-13T13:33:57.876Z,12.40
2018-01-13T13:36:26.159Z,12.10
2018-01-13T13:38:54.499Z,11.93
2018-01-13T13:41:22.833Z,12.82
2018-01-13T13:43:51.148Z,12.10
2018-01-13T13:46:19.486Z,13.80
2018-01-13T13:48:48.062Z,12.23
2018-01-13T13:51:16.344Z,12.02
2018-01-13T13:53:44.636Z,11.90
2018-01-13T13:56:12.915Z,12.98
2018-01-13T13:58:41.186Z,12.17
2018-01-13T14:01:28.434Z,13.17
2018-01-13T14:03:37.759Z,12.60
2018-01-13T14:06:06.047Z,12.20
2018-01-13T14:08:34.381Z,13.10
2018-01-13T14:11:02.687Z,13.60
2018-01-13T14:13:31.071Z,12.10
2018-01-13T14:15:59.522Z,12.80
2018-01-13T14:18:27.939Z,11.57
2018-01-13T14:20:56.128Z,12.00
2018-01-13T14:23:24.424Z,13.63
2018-01-13T14:25:52.706Z,13.27
2018-01-13T14:28:21.390Z,13.10
2018-01-13T14:30:49.783Z,12.70
2018-01-13T14:33:18.089Z,12.53
2018-01-13T14:35:46.411Z,12.97
2018-01-13T14:38:14.672Z,12.00
2018-01-13T14:40:42.962Z,12.17
2018-01-13T14:43:11.277Z,12.40
2018-01-13T14:45:39.559Z,12.03
2018-01-13T14:48:07.856Z,13.37
2018-01-13T14:50:36.199Z,12.50
2018-01-13T14:53:05.395Z,10.15
2018-01-13T14:55:34.338Z,12.47
2018-01-13T14:58:02.602Z,11.50
2018-01-13T15:00:30.926Z,9.93
2018-01-13T15:02:59.184Z,10.63
2018-01-13T15:05:27.483Z,10.63
2018-01-13T15:07:55.770Z,10.50
2018-01-13T15:10:24.085Z,10.40
2018-01-13T15:12:52.405Z,8.30
2018-01-13T15:15:20.705Z,8.32
2018-01-13T15:17:48.988Z,10.23
2018-01-13T15:20:17.300Z,7.63
2018-01-13T15:22:45.578Z,9.20
2018-01-13T15:25:13.906Z,8.25
2018-01-13T15:27:42.166Z,8.80
2018-01-13T15:30:10.464Z,8.83
2018-01-13T15:32:38.764Z,9.87
2018-01-13T15:35:07.055Z,8.97
2018-01-13T15:37:35.383Z,10.17
2018-01-13T15:40:04.677Z,9.76
2018-01-13T15:42:33.006Z,11.40
2018-01-13T15:45:01.286Z,10.60
2018-01-13T15:47:29.640Z,9.50
2018-01-13T15:49:58.022Z,9.87
2018-01-13T15:52:26.280Z,10.13
2018-01-13T15:54:54.586Z,10.70
2018-01-13T15:57:22.880Z,9.25
2018-01-13T15:59:51.297Z,9.37
2018-01-13T16:02:19.546Z,9.30
2018-01-13T16:04:48.787Z,9.27
2018-01-13T16:07:17.411Z,8.80
2018-01-13T16:09:45.894Z,8.70
2018-01-13T16:12:14.494Z,8.95
2018-01-13T16:14:42.751Z,8.70
2018-01-13T16:17:11.050Z,9.80
2018-01-13T16:19:39.406Z,8.63
2018-01-13T16:22:07.835Z,9.57
2018-01-13T16:24:36.082Z,14.50
2018-01-13T16:27:04.926Z,9.48
2018-01-13T16:29:33.224Z,9.87
2018-01-13T16:32:02.031Z,8.90
2018-01-13T16:34:30.292Z,8.77
2018-01-13T16:36:58.577Z,8.10
2018-01-13T16:39:26.853Z,9.83
2018-01-13T16:41:56.288Z,9.20
2018-01-13T16:44:24.832Z,9.30
2018-01-13T16:46:53.124Z,8.93
2018-01-13T16:49:21.406Z,9.43
2018-01-13T16:51:49.698Z,8.88
2018-01-13T16:54:17.997Z,10.00
2018-01-13T16:56:46.266Z,9.00
2018-01-13T16:59:14.607Z,9.32
2018-01-13T17:01:42.898Z,9.13
2018-01-13T17:04:11.220Z,8.93
2018-01-13T17:06:39.522Z,9.27
2018-01-13T17:09:07.803Z,9.53
2018-01-13T17:11:36.173Z,9.40
2018-01-13T17:14:04.830Z,9.50
2018-01-13T17:16:33.084Z,9.93
2018-01-13T17:19:01.397Z,10.23
2018-01-13T17:21:29.673Z,9.90
2018-01-13T17:23:58.500Z,10.77
2018-01-13T17:26:27.022Z,9.67
2018-01-13T17:28:55.333Z,10.80
2018-01-13T17:31:23.815Z,10.68
2018-01-13T17:33:52.090Z,10.23
2018-01-13T17:36:20.381Z,20.17
2018-01-13T17:38:48.651Z,10.30
2018-01-13T17:41:16.935Z,9.23
2018-01-13T17:43:45.209Z,10.67
2018-01-13T17:46:13.489Z,10.63
2018-01-13T17:48:41.758Z,9.90
2018-01-13T17:51:10.055Z,10.05
2018-01-13T17:53:38.329Z,11.00
2018-01-13T17:56:06.630Z,10.10
2018-01-13T17:58:34.879Z,10.30
2018-01-13T18:01:03.139Z,10.27
2018-01-13T18:03:31.439Z,12.50
2018-01-13T18:05:59.707Z,10.40
2018-01-13T18:08:29.260Z,11.20
2018-01-13T18:10:57.522Z,9.70
2018-01-13T18:13:25.811Z,10.47
2018-01-13T18:15:54.112Z,10.30
2018-01-13T18:18:22.391Z,10.53
2018-01-13T18:20:50.651Z,9.90
2018-01-13T18:23:18.960Z,10.20
2018-01-13T18:25:47.247Z,10.03
2018-01-13T18:28:15.536Z,11.33
2018-01-13T18:30:43.900Z,10.33
2018-01-13T18:33:12.223Z,9.90
2018-01-13T18:35:40.537Z,10.53
2018-01-13T18:38:08.755Z,11.23
2018-01-13T18:40:37.099Z,11.30
2018-01-13T18:43:05.356Z,11.00
2018-01-13T18:45:33.655Z,11.10
2018-01-13T18:48:01.920Z,9.23
2018-01-13T18:50:30.220Z,6.97
2018-01-13T18:52:58.488Z,10.70
2018-01-13T18:55:26.799Z,15.50
2018-01-13T18:57:55.076Z,11.13
2018-01-13T19:00:23.363Z,11.20
2018-01-13T19:02:51.644Z,12.27
2018-01-13T19:05:20.038Z,11.40
2018-01-13T19:07:48.284Z,12.03
2018-01-13T19:10:16.590Z,11.77
2018-01-13T19:12:44.858Z,11.23
2018-01-13T19:15:13.156Z,10.97
2018-01-13T19:17:41.467Z,12.60
2018-01-13T19:20:09.796Z,11.43
2018-01-13T19:22:38.059Z,11.30
2018-01-13T19:25:06.398Z,11.90
2018-01-13T19:27:34.692Z,11.27
2018-01-13T19:30:03.008Z,12.37
2018-01-13T19:32:31.288Z,12.47
2018-01-13T19:34:59.614Z,12.30
2018-01-13T19:37:28.732Z,12.23
2018-01-13T19:39:57.008Z,12.23
2018-01-13T19:42:25.311Z,11.47
2018-01-13T19:44:53.674Z,11.83
2018-01-13T19:47:21.985Z,11.43
2018-01-13T19:49:50.244Z,12.60
2018-01-13T19:52:18.540Z,12.25
2018-01-13T19:54:46.822Z,12.55
2018-01-13T19:57:15.154Z,13.27
2018-01-13T19:59:43.490Z,13.53
2018-01-13T20:02:11.778Z,12.50
2018-01-13T20:04:40.099Z,13.07
2018-01-13T20:07:08.482Z,12.27
2018-01-13T20:09:36.754Z,12.77
2018-01-13T20:12:05.152Z,11.87
2018-01-13T20:14:33.486Z,12.17
2018-01-13T20:17:01.762Z,11.80
2018-01-13T20:19:30.059Z,12.70
2018-01-13T20:21:58.338Z,11.27
2018-01-13T20:24:26.626Z,12.57
2018-01-13T20:26:54.891Z,12.75
2018-01-13T20:29:23.209Z,11.80
2018-01-13T20:31:51.466Z,12.47
2018-01-13T20:34:19.767Z,12.30
2018-01-13T20:36:48.038Z,12.40
2018-01-13T20:39:16.347Z,13.57
2018-01-13T20:41:44.623Z,12.53
2018-01-13T20:44:13.908Z,10.13
2018-01-13T20:46:42.487Z,11.87
2018-01-13T20:49:10.774Z,13.50
2018-01-13T20:51:39.033Z,12.07
2018-01-13T20:54:07.352Z,11.30
2018-01-13T20:56:35.626Z,10.80
2018-01-13T20:59:04.575Z,11.32
2018-01-13T21:01:33.783Z,11.10
2018-01-13T21:04:02.065Z,11.80
2018-01-13T21:06:30.362Z,11.70
2018-01-13T21:08:58.682Z,11.47
2018-01-13T21:11:26.983Z,11.87
2018-01-13T21:13:55.242Z,11.70
2018-01-13T21:16:23.541Z,12.47
2018-01-13T21:18:51.820Z,12.17
2018-01-13T21:21:20.116Z,12.87
2018-01-13T21:23:48.387Z,13.23
2018-01-13T21:26:17.143Z,13.13
2018-01-13T21:28:45.426Z,12.90
2018-01-13T21:31:13.737Z,15.15
2018-01-13T21:33:42.018Z,12.00
2018-01-13T21:36:10.303Z,12.07
2018-01-13T21:38:38.660Z,12.30
2018-01-13T21:41:06.997Z,13.20
2018-01-13T21:43:35.256Z,12.97
2018-01-13T21:46:05.284Z,12.25
2018-01-13T21:48:33.586Z,12.57
2018-01-13T21:51:01.889Z,12.65
2018-01-13T21:53:30.163Z,12.43
2018-01-13T21:55:58.510Z,11.80
2018-01-13T21:58:26.788Z,11.83
2018-01-13T22:00:55.164Z,11.93
2018-01-13T22:03:23.451Z,11.70
2018-01-13T22:05:51.734Z,11.30
2018-01-13T22:08:20.109Z,11.43
2018-01-13T22:10:48.375Z,12.30
2018-01-13T22:13:16.683Z,11.60
2018-01-13T22:15:44.952Z,11.60
2018-01-13T22:18:13.340Z,11.20
2018-01-13T22:20:41.596Z,10.63
2018-01-13T22:23:10.099Z,11.57
2018-01-13T22:25:38.364Z,12.13
2018-01-13T22:28:06.663Z,11.57
2018-01-13T22:30:34.972Z,12.30
2018-01-13T22:33:03.255Z,12.03
2018-01-13T22:35:31.569Z,12.03
2018-01-13T22:37:59.896Z,12.40
2018-01-13T22:40:28.219Z,12.40
2018-01-13T22:42:56.501Z,11.50
2018-01-13T22:45:24.828Z,11.60
2018-01-13T22:47:53.115Z,11.83
2018-01-13T22:50:21.429Z,12.83
2018-01-13T22:52:49.753Z,12.20
2018-01-13T22:55:18.494Z,12.17
2018-01-13T22:57:46.836Z,13.13
2018-01-13T23:00:15.120Z,12.33
2018-01-13T23:02:43.460Z,13.20
2018-01-13T23:05:11.728Z,11.75
2018-01-13T23:07:40.048Z,13.00
2018-01-13T23:10:08.321Z,12.60
2018-01-13T23:12:36.632Z,11.90
2018-01-13T23:15:05.288Z,13.32
2018-01-13T23:17:34.346Z,13.00
2018-01-13T23:20:02.630Z,12.30
2018-01-13T23:22:30.952Z,12.20
2018-01-13T23:24:59.209Z,12.73
2018-01-13T23:27:27.504Z,12.67
2018-01-13T23:29:55.817Z,12.63
2018-01-13T23:32:24.085Z,12.10
2018-01-13T23:34:52.726Z,13.13
2018-01-13T23:37:21.012Z,12.53
2018-01-13T23:39:49.421Z,12.20
2018-01-13T23:42:17.674Z,13.63
2018-01-13T23:44:45.997Z,13.20
2018-01-13T23:47:14.964Z,14.87
2018-01-13T23:49:43.323Z,13.38
2018-01-13T23:52:11.557Z,13.10
2018-01-13T23:54:39.867Z,13.83
2018-01-13T23:57:08.159Z,12.77
2018-01-13T23:59:36.450Z,13.03
